KBGF

Winchester Municipal Airport

Winchester, Tennessee, USA
METAR KBGF 211955Z AUTO 24006KT 10SM SCT060 21/08 A3012 RMK
Observed Flight Rules
Jan-21 @ 19:55 UTC (23 minutes ago) Visual Flight Rules
Wind Visibility Clouds
240° at 6 knots 10 miles
  • Scattered at 6,000' AGL
Temperatures Readings
Current 21°C / 70°F
Dewpoint 8°C / 46°F
Humidity 43%
Altimeter 30.12" Hg
Pressure 1020 hPa
Elevation 299
METAR KBGF 211955Z AUTO 24006KT 10SM SCT060 21/08 A3012 RMK
Observed Flight Rules
Jan-21 @ 19:55 UTC
(23 minutes ago)
VFR
Wind Visibility
240° at 6 knots 10 miles
Clouds
  • Scattered at 6,000' AGL
Temperature Dewpoint
21°C / 70°F 8°C / 46°F
Humidity Altimeter Pressure
43% 30.12" Hg 1020 hPa